sensor_id;sensor_type;location;lat;lon;timestamp;P1;durP1;ratioP1;P2;durP2;ratioP2
41201;SDS011;26936;50.524;8.684;2023-03-31T00:02:06;3.43;;;0.57;;
41201;SDS011;26936;50.524;8.684;2023-03-31T00:04:40;3.65;;;0.82;;
41201;SDS011;26936;50.524;8.684;2023-03-31T00:07:16;2.55;;;0.60;;
41201;SDS011;26936;50.524;8.684;2023-03-31T00:09:46;3.20;;;0.60;;
41201;SDS011;26936;50.524;8.684;2023-03-31T00:12:12;4.57;;;0.82;;
41201;SDS011;26936;50.524;8.684;2023-03-31T00:14:39;3.15;;;0.88;;
41201;SDS011;26936;50.524;8.684;2023-03-31T00:17:06;1.85;;;0.68;;
41201;SDS011;26936;50.524;8.684;2023-03-31T00:19:32;2.53;;;0.60;;
41201;SDS011;26936;50.524;8.684;2023-03-31T00:21:58;3.22;;;0.82;;
41201;SDS011;26936;50.524;8.684;2023-03-31T00:24:27;5.15;;;0.82;;
41201;SDS011;26936;50.524;8.684;2023-03-31T00:26:57;3.30;;;0.73;;
41201;SDS011;26936;50.524;8.684;2023-03-31T00:29:27;4.10;;;0.60;;
41201;SDS011;26936;50.524;8.684;2023-03-31T00:31:53;6.35;;;0.73;;
41201;SDS011;26936;50.524;8.684;2023-03-31T00:34:19;4.45;;;0.60;;
41201;SDS011;26936;50.524;8.684;2023-03-31T00:36:44;2.70;;;0.80;;
41201;SDS011;26936;50.524;8.684;2023-03-31T00:39:11;3.83;;;1.05;;
41201;SDS011;26936;50.524;8.684;2023-03-31T00:41:38;3.30;;;0.98;;
41201;SDS011;26936;50.524;8.684;2023-03-31T00:44:05;7.07;;;0.98;;
41201;SDS011;26936;50.524;8.684;2023-03-31T00:46:35;4.95;;;0.85;;
41201;SDS011;26936;50.524;8.684;2023-03-31T00:49:05;3.17;;;0.77;;
41201;SDS011;26936;50.524;8.684;2023-03-31T00:51:38;6.68;;;1.02;;
41201;SDS011;26936;50.524;8.684;2023-03-31T00:54:04;6.50;;;0.88;;
41201;SDS011;26936;50.524;8.684;2023-03-31T00:56:33;3.10;;;0.85;;
41201;SDS011;26936;50.524;8.684;2023-03-31T00:59:03;4.55;;;1.15;;
41201;SDS011;26936;50.524;8.684;2023-03-31T01:01:33;5.10;;;0.85;;
41201;SDS011;26936;50.524;8.684;2023-03-31T01:03:59;4.47;;;0.80;;
41201;SDS011;26936;50.524;8.684;2023-03-31T01:06:26;5.00;;;1.08;;
41201;SDS011;26936;50.524;8.684;2023-03-31T01:08:54;6.22;;;1.00;;
41201;SDS011;26936;50.524;8.684;2023-03-31T01:11:21;4.22;;;0.90;;
41201;SDS011;26936;50.524;8.684;2023-03-31T01:13:50;4.28;;;0.90;;
41201;SDS011;26936;50.524;8.684;2023-03-31T01:16:19;6.50;;;1.27;;
41201;SDS011;26936;50.524;8.684;2023-03-31T01:18:45;8.90;;;1.23;;
41201;SDS011;26936;50.524;8.684;2023-03-31T01:29:56;4.18;;;1.23;;
41201;SDS011;26936;50.524;8.684;2023-03-31T01:37:55;5.53;;;0.85;;
41201;SDS011;26936;50.524;8.684;2023-03-31T01:43:28;3.75;;;1.20;;
41201;SDS011;26936;50.524;8.684;2023-03-31T01:46:04;4.75;;;0.90;;
41201;SDS011;26936;50.524;8.684;2023-03-31T01:48:43;6.78;;;1.10;;
41201;SDS011;26936;50.524;8.684;2023-03-31T01:51:18;3.22;;;0.85;;
41201;SDS011;26936;50.524;8.684;2023-03-31T01:56:31;5.82;;;0.82;;
41201;SDS011;26936;50.524;8.684;2023-03-31T01:59:00;3.10;;;0.73;;
41201;SDS011;26936;50.524;8.684;2023-03-31T02:06:50;3.13;;;0.70;;
41201;SDS011;26936;50.524;8.684;2023-03-31T02:09:20;6.15;;;0.70;;
41201;SDS011;26936;50.524;8.684;2023-03-31T02:11:51;5.97;;;1.00;;
41201;SDS011;26936;50.524;8.684;2023-03-31T02:14:20;6.63;;;1.10;;
41201;SDS011;26936;50.524;8.684;2023-03-31T02:16:49;5.63;;;1.20;;
41201;SDS011;26936;50.524;8.684;2023-03-31T02:19:22;3.38;;;0.75;;
41201;SDS011;26936;50.524;8.684;2023-03-31T02:21:51;2.80;;;0.82;;
41201;SDS011;26936;50.524;8.684;2023-03-31T02:24:19;5.55;;;1.20;;
41201;SDS011;26936;50.524;8.684;2023-03-31T02:26:51;3.47;;;0.80;;
41201;SDS011;26936;50.524;8.684;2023-03-31T02:29:23;5.43;;;1.13;;
41201;SDS011;26936;50.524;8.684;2023-03-31T02:31:57;3.33;;;0.85;;
41201;SDS011;26936;50.524;8.684;2023-03-31T02:34:28;7.03;;;1.13;;
41201;SDS011;26936;50.524;8.684;2023-03-31T02:36:53;5.60;;;1.30;;
41201;SDS011;26936;50.524;8.684;2023-03-31T02:39:20;9.73;;;1.40;;
41201;SDS011;26936;50.524;8.684;2023-03-31T02:41:50;10.98;;;1.45;;
41201;SDS011;26936;50.524;8.684;2023-03-31T02:44:16;6.30;;;1.77;;
41201;SDS011;26936;50.524;8.684;2023-03-31T02:46:42;6.50;;;0.93;;
41201;SDS011;26936;50.524;8.684;2023-03-31T02:49:08;4.57;;;0.90;;
41201;SDS011;26936;50.524;8.684;2023-03-31T02:54:47;6.05;;;1.10;;
41201;SDS011;26936;50.524;8.684;2023-03-31T03:03:00;9.82;;;1.13;;
41201;SDS011;26936;50.524;8.684;2023-03-31T03:05:35;8.13;;;1.60;;
41201;SDS011;26936;50.524;8.684;2023-03-31T03:08:27;7.43;;;1.90;;
41201;SDS011;26936;50.524;8.684;2023-03-31T03:11:21;8.65;;;2.70;;
41201;SDS011;26936;50.524;8.684;2023-03-31T03:14:08;9.48;;;2.67;;
41201;SDS011;26936;50.524;8.684;2023-03-31T03:16:44;9.10;;;2.53;;
41201;SDS011;26936;50.524;8.684;2023-03-31T03:19:18;5.22;;;2.20;;
41201;SDS011;26936;50.524;8.684;2023-03-31T03:21:46;5.72;;;2.08;;
41201;SDS011;26936;50.524;8.684;2023-03-31T03:24:12;6.28;;;1.92;;
41201;SDS011;26936;50.524;8.684;2023-03-31T03:26:39;7.15;;;1.98;;
41201;SDS011;26936;50.524;8.684;2023-03-31T03:29:05;7.28;;;1.88;;
41201;SDS011;26936;50.524;8.684;2023-03-31T03:31:30;5.57;;;1.63;;
41201;SDS011;26936;50.524;8.684;2023-03-31T03:33:57;6.93;;;1.73;;
41201;SDS011;26936;50.524;8.684;2023-03-31T03:36:22;9.60;;;2.83;;
41201;SDS011;26936;50.524;8.684;2023-03-31T03:38:48;10.17;;;4.00;;
41201;SDS011;26936;50.524;8.684;2023-03-31T03:41:13;9.30;;;4.03;;
41201;SDS011;26936;50.524;8.684;2023-03-31T03:43:38;10.45;;;4.30;;
41201;SDS011;26936;50.524;8.684;2023-03-31T03:46:04;10.38;;;4.38;;
41201;SDS011;26936;50.524;8.684;2023-03-31T03:48:29;11.55;;;4.78;;
41201;SDS011;26936;50.524;8.684;2023-03-31T03:50:55;11.23;;;4.73;;
41201;SDS011;26936;50.524;8.684;2023-03-31T03:53:24;8.80;;;4.60;;
41201;SDS011;26936;50.524;8.684;2023-03-31T03:55:49;13.57;;;5.40;;
41201;SDS011;26936;50.524;8.684;2023-03-31T03:58:15;12.85;;;4.93;;
41201;SDS011;26936;50.524;8.684;2023-03-31T04:00:41;13.18;;;4.43;;
41201;SDS011;26936;50.524;8.684;2023-03-31T04:03:06;13.77;;;4.13;;
41201;SDS011;26936;50.524;8.684;2023-03-31T04:05:32;9.60;;;3.60;;
41201;SDS011;26936;50.524;8.684;2023-03-31T04:07:57;9.50;;;3.47;;
41201;SDS011;26936;50.524;8.684;2023-03-31T04:10:22;10.73;;;3.47;;
41201;SDS011;26936;50.524;8.684;2023-03-31T04:12:47;12.30;;;4.10;;
41201;SDS011;26936;50.524;8.684;2023-03-31T04:15:13;9.67;;;3.43;;
41201;SDS011;26936;50.524;8.684;2023-03-31T04:17:38;10.82;;;3.20;;
41201;SDS011;26936;50.524;8.684;2023-03-31T04:20:04;8.60;;;3.13;;
41201;SDS011;26936;50.524;8.684;2023-03-31T04:22:34;12.40;;;3.58;;
41201;SDS011;26936;50.524;8.684;2023-03-31T04:25:04;9.95;;;3.25;;
41201;SDS011;26936;50.524;8.684;2023-03-31T04:27:40;10.20;;;3.58;;
41201;SDS011;26936;50.524;8.684;2023-03-31T04:30:19;11.15;;;3.00;;
41201;SDS011;26936;50.524;8.684;2023-03-31T04:32:53;11.75;;;4.35;;
41201;SDS011;26936;50.524;8.684;2023-03-31T04:35:20;9.95;;;4.10;;
41201;SDS011;26936;50.524;8.684;2023-03-31T04:37:47;11.88;;;3.60;;
41201;SDS011;26936;50.524;8.684;2023-03-31T04:40:13;13.63;;;4.55;;
41201;SDS011;26936;50.524;8.684;2023-03-31T04:42:38;10.00;;;4.10;;
41201;SDS011;26936;50.524;8.684;2023-03-31T04:45:04;10.35;;;3.85;;
41201;SDS011;26936;50.524;8.684;2023-03-31T04:47:29;6.97;;;3.78;;
41201;SDS011;26936;50.524;8.684;2023-03-31T04:49:54;14.13;;;4.10;;
41201;SDS011;26936;50.524;8.684;2023-03-31T04:52:20;12.30;;;4.93;;
41201;SDS011;26936;50.524;8.684;2023-03-31T04:54:45;11.20;;;5.18;;
41201;SDS011;26936;50.524;8.684;2023-03-31T04:57:10;8.63;;;4.57;;
41201;SDS011;26936;50.524;8.684;2023-03-31T04:59:36;8.30;;;3.80;;
41201;SDS011;26936;50.524;8.684;2023-03-31T05:02:01;8.30;;;3.50;;
41201;SDS011;26936;50.524;8.684;2023-03-31T05:04:26;8.57;;;3.23;;
41201;SDS011;26936;50.524;8.684;2023-03-31T05:06:51;8.37;;;3.60;;
41201;SDS011;26936;50.524;8.684;2023-03-31T05:09:17;5.85;;;3.13;;
41201;SDS011;26936;50.524;8.684;2023-03-31T05:11:42;9.43;;;3.78;;
41201;SDS011;26936;50.524;8.684;2023-03-31T05:14:08;11.47;;;4.53;;
41201;SDS011;26936;50.524;8.684;2023-03-31T05:16:33;13.40;;;5.17;;
41201;SDS011;26936;50.524;8.684;2023-03-31T05:18:58;14.70;;;5.20;;
41201;SDS011;26936;50.524;8.684;2023-03-31T05:21:24;13.93;;;5.03;;
41201;SDS011;26936;50.524;8.684;2023-03-31T05:23:50;13.35;;;5.25;;
41201;SDS011;26936;50.524;8.684;2023-03-31T05:26:17;16.60;;;5.40;;
41201;SDS011;26936;50.524;8.684;2023-03-31T05:28:42;13.52;;;4.78;;
41201;SDS011;26936;50.524;8.684;2023-03-31T05:31:08;10.52;;;4.72;;
41201;SDS011;26936;50.524;8.684;2023-03-31T05:33:35;11.25;;;4.90;;
41201;SDS011;26936;50.524;8.684;2023-03-31T05:36:06;9.45;;;4.00;;
41201;SDS011;26936;50.524;8.684;2023-03-31T05:38:33;7.80;;;3.65;;
41201;SDS011;26936;50.524;8.684;2023-03-31T05:40:58;11.90;;;4.05;;
41201;SDS011;26936;50.524;8.684;2023-03-31T05:43:23;10.07;;;4.10;;
41201;SDS011;26936;50.524;8.684;2023-03-31T05:45:49;8.20;;;3.72;;
41201;SDS011;26936;50.524;8.684;2023-03-31T05:48:14;10.65;;;4.35;;
41201;SDS011;26936;50.524;8.684;2023-03-31T05:50:39;10.90;;;4.63;;
41201;SDS011;26936;50.524;8.684;2023-03-31T05:53:06;9.43;;;4.40;;
41201;SDS011;26936;50.524;8.684;2023-03-31T05:55:34;12.07;;;4.18;;
41201;SDS011;26936;50.524;8.684;2023-03-31T05:58:00;10.73;;;5.10;;
41201;SDS011;26936;50.524;8.684;2023-03-31T06:00:25;12.03;;;3.87;;
41201;SDS011;26936;50.524;8.684;2023-03-31T06:02:50;9.57;;;4.57;;
41201;SDS011;26936;50.524;8.684;2023-03-31T06:05:15;7.77;;;3.37;;
41201;SDS011;26936;50.524;8.684;2023-03-31T06:07:41;9.00;;;3.45;;
41201;SDS011;26936;50.524;8.684;2023-03-31T06:10:06;13.63;;;4.63;;
41201;SDS011;26936;50.524;8.684;2023-03-31T06:12:34;17.15;;;4.10;;
41201;SDS011;26936;50.524;8.684;2023-03-31T06:14:59;14.32;;;4.60;;
41201;SDS011;26936;50.524;8.684;2023-03-31T06:17:25;12.35;;;3.75;;
41201;SDS011;26936;50.524;8.684;2023-03-31T06:19:50;8.57;;;3.47;;
41201;SDS011;26936;50.524;8.684;2023-03-31T06:22:15;9.53;;;3.63;;
41201;SDS011;26936;50.524;8.684;2023-03-31T06:24:40;9.60;;;3.70;;
41201;SDS011;26936;50.524;8.684;2023-03-31T06:27:06;10.20;;;4.13;;
41201;SDS011;26936;50.524;8.684;2023-03-31T06:29:31;10.52;;;3.50;;
41201;SDS011;26936;50.524;8.684;2023-03-31T06:31:56;10.63;;;3.63;;
41201;SDS011;26936;50.524;8.684;2023-03-31T06:34:21;13.57;;;3.63;;
41201;SDS011;26936;50.524;8.684;2023-03-31T06:36:47;10.93;;;4.05;;
41201;SDS011;26936;50.524;8.684;2023-03-31T06:39:12;11.93;;;3.50;;
41201;SDS011;26936;50.524;8.684;2023-03-31T06:41:37;12.47;;;3.83;;
41201;SDS011;26936;50.524;8.684;2023-03-31T06:44:03;7.65;;;3.00;;
41201;SDS011;26936;50.524;8.684;2023-03-31T06:46:28;10.88;;;3.67;;
41201;SDS011;26936;50.524;8.684;2023-03-31T06:48:53;11.02;;;3.17;;
41201;SDS011;26936;50.524;8.684;2023-03-31T06:51:19;11.65;;;3.50;;
41201;SDS011;26936;50.524;8.684;2023-03-31T06:53:44;11.32;;;3.35;;
41201;SDS011;26936;50.524;8.684;2023-03-31T06:56:10;7.85;;;3.33;;
41201;SDS011;26936;50.524;8.684;2023-03-31T06:58:35;9.77;;;3.30;;
41201;SDS011;26936;50.524;8.684;2023-03-31T07:01:01;9.43;;;3.27;;
41201;SDS011;26936;50.524;8.684;2023-03-31T07:03:30;9.93;;;2.60;;
41201;SDS011;26936;50.524;8.684;2023-03-31T07:05:56;8.57;;;2.90;;
41201;SDS011;26936;50.524;8.684;2023-03-31T07:08:21;7.28;;;3.08;;
41201;SDS011;26936;50.524;8.684;2023-03-31T07:10:47;11.25;;;3.20;;
41201;SDS011;26936;50.524;8.684;2023-03-31T07:13:14;8.13;;;3.85;;
41201;SDS011;26936;50.524;8.684;2023-03-31T07:15:41;8.57;;;3.22;;
41201;SDS011;26936;50.524;8.684;2023-03-31T07:18:06;5.93;;;2.72;;
41201;SDS011;26936;50.524;8.684;2023-03-31T07:20:33;7.10;;;3.15;;
41201;SDS011;26936;50.524;8.684;2023-03-31T07:22:58;9.77;;;3.15;;
41201;SDS011;26936;50.524;8.684;2023-03-31T07:25:23;6.55;;;2.65;;
41201;SDS011;26936;50.524;8.684;2023-03-31T07:27:49;6.78;;;3.00;;
41201;SDS011;26936;50.524;8.684;2023-03-31T07:30:15;7.05;;;3.63;;
41201;SDS011;26936;50.524;8.684;2023-03-31T07:32:45;8.70;;;3.42;;
41201;SDS011;26936;50.524;8.684;2023-03-31T07:35:11;5.00;;;2.60;;
41201;SDS011;26936;50.524;8.684;2023-03-31T07:37:37;7.40;;;3.13;;
41201;SDS011;26936;50.524;8.684;2023-03-31T07:40:05;5.93;;;2.70;;
41201;SDS011;26936;50.524;8.684;2023-03-31T07:42:31;4.70;;;2.58;;
41201;SDS011;26936;50.524;8.684;2023-03-31T07:44:57;7.30;;;2.85;;
41201;SDS011;26936;50.524;8.684;2023-03-31T07:47:23;5.75;;;1.63;;
41201;SDS011;26936;50.524;8.684;2023-03-31T07:49:49;4.72;;;1.40;;
41201;SDS011;26936;50.524;8.684;2023-03-31T07:52:15;3.47;;;1.20;;
41201;SDS011;26936;50.524;8.684;2023-03-31T07:54:41;3.47;;;1.20;;
41201;SDS011;26936;50.524;8.684;2023-03-31T07:57:06;2.72;;;1.10;;
41201;SDS011;26936;50.524;8.684;2023-03-31T07:59:32;3.40;;;1.45;;
41201;SDS011;26936;50.524;8.684;2023-03-31T08:01:58;3.40;;;1.23;;
41201;SDS011;26936;50.524;8.684;2023-03-31T08:04:23;4.93;;;2.00;;
41201;SDS011;26936;50.524;8.684;2023-03-31T08:06:49;5.22;;;2.58;;
41201;SDS011;26936;50.524;8.684;2023-03-31T08:09:15;6.28;;;2.63;;
41201;SDS011;26936;50.524;8.684;2023-03-31T08:11:41;5.88;;;2.42;;
41201;SDS011;26936;50.524;8.684;2023-03-31T08:14:07;5.15;;;2.67;;
41201;SDS011;26936;50.524;8.684;2023-03-31T08:16:32;5.22;;;2.55;;
41201;SDS011;26936;50.524;8.684;2023-03-31T08:18:57;3.97;;;2.03;;
41201;SDS011;26936;50.524;8.684;2023-03-31T08:21:23;5.10;;;2.07;;
41201;SDS011;26936;50.524;8.684;2023-03-31T08:23:48;6.07;;;1.67;;
41201;SDS011;26936;50.524;8.684;2023-03-31T08:26:14;3.00;;;1.42;;
41201;SDS011;26936;50.524;8.684;2023-03-31T08:28:45;3.13;;;1.65;;
41201;SDS011;26936;50.524;8.684;2023-03-31T08:31:15;3.17;;;1.00;;
41201;SDS011;26936;50.524;8.684;2023-03-31T08:33:42;1.92;;;1.20;;
41201;SDS011;26936;50.524;8.684;2023-03-31T08:36:08;1.58;;;1.05;;
41201;SDS011;26936;50.524;8.684;2023-03-31T08:38:35;6.63;;;1.33;;
41201;SDS011;26936;50.524;8.684;2023-03-31T08:41:05;2.22;;;0.75;;
41201;SDS011;26936;50.524;8.684;2023-03-31T08:43:39;2.05;;;0.60;;
41201;SDS011;26936;50.524;8.684;2023-03-31T08:46:12;4.32;;;0.80;;
41201;SDS011;26936;50.524;8.684;2023-03-31T08:48:47;1.75;;;0.80;;
41201;SDS011;26936;50.524;8.684;2023-03-31T08:51:17;4.72;;;1.05;;
41201;SDS011;26936;50.524;8.684;2023-03-31T08:54:04;2.38;;;0.77;;
41201;SDS011;26936;50.524;8.684;2023-03-31T08:56:39;2.30;;;0.90;;
41201;SDS011;26936;50.524;8.684;2023-03-31T08:59:28;4.20;;;1.42;;
41201;SDS011;26936;50.524;8.684;2023-03-31T09:01:58;1.13;;;0.60;;
41201;SDS011;26936;50.524;8.684;2023-03-31T09:07:14;1.80;;;0.70;;
41201;SDS011;26936;50.524;8.684;2023-03-31T09:10:02;1.00;;;0.40;;
41201;SDS011;26936;50.524;8.684;2023-03-31T09:15:46;2.67;;;0.75;;
41201;SDS011;26936;50.524;8.684;2023-03-31T09:18:21;3.65;;;0.70;;
41201;SDS011;26936;50.524;8.684;2023-03-31T09:21:09;3.45;;;0.80;;
41201;SDS011;26936;50.524;8.684;2023-03-31T09:23:44;4.03;;;0.70;;
41201;SDS011;26936;50.524;8.684;2023-03-31T09:26:19;4.55;;;0.98;;
41201;SDS011;26936;50.524;8.684;2023-03-31T09:28:50;3.38;;;1.23;;
41201;SDS011;26936;50.524;8.684;2023-03-31T09:31:18;4.75;;;1.10;;
41201;SDS011;26936;50.524;8.684;2023-03-31T09:33:45;4.40;;;1.10;;
41201;SDS011;26936;50.524;8.684;2023-03-31T09:36:16;5.75;;;1.20;;
41201;SDS011;26936;50.524;8.684;2023-03-31T09:38:43;5.07;;;1.30;;
41201;SDS011;26936;50.524;8.684;2023-03-31T09:41:10;4.80;;;1.30;;
41201;SDS011;26936;50.524;8.684;2023-03-31T09:43:38;4.47;;;1.30;;
41201;SDS011;26936;50.524;8.684;2023-03-31T09:46:11;6.28;;;1.08;;
41201;SDS011;26936;50.524;8.684;2023-03-31T09:49:01;5.50;;;1.30;;
41201;SDS011;26936;50.524;8.684;2023-03-31T09:51:32;6.25;;;1.20;;
41201;SDS011;26936;50.524;8.684;2023-03-31T09:57:10;2.78;;;1.00;;
41201;SDS011;26936;50.524;8.684;2023-03-31T09:59:38;5.93;;;1.00;;
41201;SDS011;26936;50.524;8.684;2023-03-31T10:04:53;3.92;;;1.08;;
41201;SDS011;26936;50.524;8.684;2023-03-31T10:07:22;4.30;;;2.03;;
41201;SDS011;26936;50.524;8.684;2023-03-31T10:09:48;4.45;;;1.05;;
41201;SDS011;26936;50.524;8.684;2023-03-31T10:12:15;6.93;;;1.33;;
41201;SDS011;26936;50.524;8.684;2023-03-31T10:14:48;6.43;;;1.23;;
41201;SDS011;26936;50.524;8.684;2023-03-31T10:17:19;3.10;;;1.00;;
41201;SDS011;26936;50.524;8.684;2023-03-31T10:19:47;4.70;;;1.10;;
41201;SDS011;26936;50.524;8.684;2023-03-31T10:22:30;4.70;;;0.95;;
41201;SDS011;26936;50.524;8.684;2023-03-31T10:25:12;5.35;;;1.30;;
41201;SDS011;26936;50.524;8.684;2023-03-31T10:27:39;3.33;;;1.08;;
41201;SDS011;26936;50.524;8.684;2023-03-31T10:30:08;3.45;;;1.00;;
41201;SDS011;26936;50.524;8.684;2023-03-31T10:32:38;4.68;;;1.00;;
41201;SDS011;26936;50.524;8.684;2023-03-31T10:35:19;3.30;;;0.85;;
41201;SDS011;26936;50.524;8.684;2023-03-31T10:37:49;2.22;;;0.77;;
41201;SDS011;26936;50.524;8.684;2023-03-31T10:40:20;3.25;;;0.70;;
41201;SDS011;26936;50.524;8.684;2023-03-31T10:42:56;4.47;;;1.10;;
41201;SDS011;26936;50.524;8.684;2023-03-31T10:45:46;4.05;;;0.88;;
41201;SDS011;26936;50.524;8.684;2023-03-31T10:48:17;4.05;;;1.30;;
41201;SDS011;26936;50.524;8.684;2023-03-31T10:51:09;8.70;;;1.23;;
41201;SDS011;26936;50.524;8.684;2023-03-31T10:53:42;2.83;;;0.70;;
41201;SDS011;26936;50.524;8.684;2023-03-31T10:59:07;2.50;;;0.57;;
41201;SDS011;26936;50.524;8.684;2023-03-31T11:07:12;3.05;;;0.50;;
41201;SDS011;26936;50.524;8.684;2023-03-31T11:15:23;4.47;;;0.50;;
41201;SDS011;26936;50.524;8.684;2023-03-31T11:21:00;1.95;;;0.68;;
41201;SDS011;26936;50.524;8.684;2023-03-31T11:26:09;2.33;;;0.80;;
41201;SDS011;26936;50.524;8.684;2023-03-31T11:28:44;2.95;;;0.70;;
41201;SDS011;26936;50.524;8.684;2023-03-31T11:39:51;4.72;;;0.82;;
41201;SDS011;26936;50.524;8.684;2023-03-31T11:42:26;5.22;;;1.02;;
41201;SDS011;26936;50.524;8.684;2023-03-31T11:45:03;4.80;;;1.30;;
41201;SDS011;26936;50.524;8.684;2023-03-31T11:47:37;5.00;;;1.00;;
41201;SDS011;26936;50.524;8.684;2023-03-31T11:50:09;3.70;;;0.90;;
41201;SDS011;26936;50.524;8.684;2023-03-31T11:52:39;4.97;;;0.80;;
41201;SDS011;26936;50.524;8.684;2023-03-31T11:55:15;3.30;;;0.40;;
41201;SDS011;26936;50.524;8.684;2023-03-31T11:57:47;3.22;;;0.60;;
41201;SDS011;26936;50.524;8.684;2023-03-31T12:00:29;4.53;;;0.68;;
41201;SDS011;26936;50.524;8.684;2023-03-31T12:05:39;4.95;;;1.10;;
41201;SDS011;26936;50.524;8.684;2023-03-31T12:08:18;3.03;;;1.20;;
41201;SDS011;26936;50.524;8.684;2023-03-31T12:10:53;4.60;;;0.90;;
41201;SDS011;26936;50.524;8.684;2023-03-31T12:13:33;5.25;;;1.20;;
41201;SDS011;26936;50.524;8.684;2023-03-31T12:16:09;7.82;;;1.55;;
41201;SDS011;26936;50.524;8.684;2023-03-31T12:21:33;4.97;;;1.13;;
41201;SDS011;26936;50.524;8.684;2023-03-31T12:24:00;7.57;;;1.60;;
41201;SDS011;26936;50.524;8.684;2023-03-31T12:26:33;7.25;;;1.15;;
41201;SDS011;26936;50.524;8.684;2023-03-31T12:31:46;6.18;;;0.88;;
41201;SDS011;26936;50.524;8.684;2023-03-31T12:34:15;3.13;;;0.60;;
41201;SDS011;26936;50.524;8.684;2023-03-31T12:36:47;4.93;;;0.90;;
41201;SDS011;26936;50.524;8.684;2023-03-31T12:53:02;3.40;;;0.60;;
41201;SDS011;26936;50.524;8.684;2023-03-31T12:55:35;3.17;;;0.55;;
41201;SDS011;26936;50.524;8.684;2023-03-31T13:01:09;2.85;;;0.70;;
41201;SDS011;26936;50.524;8.684;2023-03-31T13:08:58;4.00;;;0.60;;
41201;SDS011;26936;50.524;8.684;2023-03-31T13:14:03;3.97;;;0.90;;
41201;SDS011;26936;50.524;8.684;2023-03-31T13:16:46;3.20;;;0.55;;
41201;SDS011;26936;50.524;8.684;2023-03-31T13:19:25;2.67;;;0.68;;
41201;SDS011;26936;50.524;8.684;2023-03-31T13:21:55;2.47;;;0.73;;
41201;SDS011;26936;50.524;8.684;2023-03-31T13:24:22;5.78;;;0.90;;
41201;SDS011;26936;50.524;8.684;2023-03-31T13:26:49;7.47;;;1.08;;
41201;SDS011;26936;50.524;8.684;2023-03-31T13:34:44;6.13;;;0.80;;
41201;SDS011;26936;50.524;8.684;2023-03-31T13:40:16;4.25;;;1.00;;
41201;SDS011;26936;50.524;8.684;2023-03-31T13:51:22;3.35;;;1.08;;
41201;SDS011;26936;50.524;8.684;2023-03-31T13:56:32;8.10;;;1.13;;
41201;SDS011;26936;50.524;8.684;2023-03-31T14:02:19;5.18;;;1.02;;
41201;SDS011;26936;50.524;8.684;2023-03-31T14:05:08;4.03;;;1.25;;
41201;SDS011;26936;50.524;8.684;2023-03-31T14:07:57;4.82;;;1.10;;
41201;SDS011;26936;50.524;8.684;2023-03-31T14:10:37;5.85;;;1.42;;
41201;SDS011;26936;50.524;8.684;2023-03-31T14:15:42;4.55;;;0.93;;
41201;SDS011;26936;50.524;8.684;2023-03-31T14:18:14;7.38;;;1.15;;
41201;SDS011;26936;50.524;8.684;2023-03-31T14:34:17;6.00;;;0.90;;
41201;SDS011;26936;50.524;8.684;2023-03-31T14:37:03;4.95;;;1.15;;
41201;SDS011;26936;50.524;8.684;2023-03-31T14:39:40;5.47;;;0.93;;
41201;SDS011;26936;50.524;8.684;2023-03-31T14:42:10;7.00;;;0.98;;
41201;SDS011;26936;50.524;8.684;2023-03-31T14:44:38;4.97;;;1.05;;
41201;SDS011;26936;50.524;8.684;2023-03-31T14:47:10;2.28;;;0.70;;
41201;SDS011;26936;50.524;8.684;2023-03-31T14:49:38;3.63;;;0.82;;
41201;SDS011;26936;50.524;8.684;2023-03-31T14:52:12;4.38;;;0.73;;
41201;SDS011;26936;50.524;8.684;2023-03-31T14:54:40;3.72;;;0.70;;
41201;SDS011;26936;50.524;8.684;2023-03-31T14:57:06;4.70;;;0.63;;
41201;SDS011;26936;50.524;8.684;2023-03-31T14:59:34;4.60;;;1.08;;
41201;SDS011;26936;50.524;8.684;2023-03-31T15:02:02;2.85;;;0.68;;
41201;SDS011;26936;50.524;8.684;2023-03-31T15:04:29;3.50;;;1.00;;
41201;SDS011;26936;50.524;8.684;2023-03-31T15:07:08;3.42;;;0.93;;
41201;SDS011;26936;50.524;8.684;2023-03-31T15:09:35;3.90;;;1.10;;
41201;SDS011;26936;50.524;8.684;2023-03-31T15:12:02;2.95;;;1.08;;
41201;SDS011;26936;50.524;8.684;2023-03-31T15:14:30;4.22;;;1.15;;
41201;SDS011;26936;50.524;8.684;2023-03-31T15:16:58;4.57;;;0.90;;
41201;SDS011;26936;50.524;8.684;2023-03-31T15:19:26;6.43;;;1.08;;
41201;SDS011;26936;50.524;8.684;2023-03-31T15:21:57;5.40;;;1.10;;
41201;SDS011;26936;50.524;8.684;2023-03-31T15:24:38;2.45;;;0.70;;
41201;SDS011;26936;50.524;8.684;2023-03-31T15:27:05;5.22;;;1.08;;
41201;SDS011;26936;50.524;8.684;2023-03-31T15:29:35;5.00;;;1.20;;
41201;SDS011;26936;50.524;8.684;2023-03-31T15:32:06;3.58;;;1.15;;
41201;SDS011;26936;50.524;8.684;2023-03-31T15:34:38;2.90;;;0.82;;
41201;SDS011;26936;50.524;8.684;2023-03-31T15:37:07;4.28;;;1.30;;
41201;SDS011;26936;50.524;8.684;2023-03-31T15:39:33;5.45;;;0.85;;
41201;SDS011;26936;50.524;8.684;2023-03-31T15:42:02;2.17;;;0.40;;
41201;SDS011;26936;50.524;8.684;2023-03-31T15:47:22;3.97;;;0.63;;
41201;SDS011;26936;50.524;8.684;2023-03-31T15:49:56;3.70;;;0.70;;
41201;SDS011;26936;50.524;8.684;2023-03-31T15:52:30;3.05;;;0.90;;
41201;SDS011;26936;50.524;8.684;2023-03-31T15:54:59;4.68;;;1.00;;
41201;SDS011;26936;50.524;8.684;2023-03-31T15:57:30;2.90;;;0.98;;
41201;SDS011;26936;50.524;8.684;2023-03-31T15:59:57;2.85;;;0.63;;
41201;SDS011;26936;50.524;8.684;2023-03-31T16:02:24;2.10;;;0.70;;
41201;SDS011;26936;50.524;8.684;2023-03-31T16:05:03;4.30;;;0.55;;
41201;SDS011;26936;50.524;8.684;2023-03-31T16:07:30;6.18;;;1.52;;
41201;SDS011;26936;50.524;8.684;2023-03-31T16:10:06;4.80;;;0.70;;
41201;SDS011;26936;50.524;8.684;2023-03-31T16:13:17;13.85;;;5.82;;
41201;SDS011;26936;50.524;8.684;2023-03-31T16:15:41;7.75;;;4.22;;
41201;SDS011;26936;50.524;8.684;2023-03-31T16:18:14;4.57;;;1.75;;
41201;SDS011;26936;50.524;8.684;2023-03-31T16:20:52;8.27;;;2.50;;
41201;SDS011;26936;50.524;8.684;2023-03-31T16:23:20;4.22;;;1.00;;
41201;SDS011;26936;50.524;8.684;2023-03-31T16:25:52;5.32;;;1.10;;
41201;SDS011;26936;50.524;8.684;2023-03-31T16:28:20;4.60;;;1.27;;
41201;SDS011;26936;50.524;8.684;2023-03-31T16:30:48;7.18;;;1.42;;
41201;SDS011;26936;50.524;8.684;2023-03-31T16:33:22;2.65;;;0.73;;
41201;SDS011;26936;50.524;8.684;2023-03-31T16:35:50;2.70;;;0.93;;
41201;SDS011;26936;50.524;8.684;2023-03-31T16:38:17;5.85;;;1.13;;
41201;SDS011;26936;50.524;8.684;2023-03-31T16:40:45;3.72;;;0.90;;
41201;SDS011;26936;50.524;8.684;2023-03-31T16:45:42;4.57;;;0.60;;
41201;SDS011;26936;50.524;8.684;2023-03-31T16:48:11;4.15;;;1.25;;
41201;SDS011;26936;50.524;8.684;2023-03-31T16:50:37;5.13;;;1.08;;
41201;SDS011;26936;50.524;8.684;2023-03-31T16:53:04;2.00;;;0.77;;
41201;SDS011;26936;50.524;8.684;2023-03-31T16:55:29;4.05;;;1.30;;
41201;SDS011;26936;50.524;8.684;2023-03-31T16:57:55;5.55;;;1.45;;
41201;SDS011;26936;50.524;8.684;2023-03-31T17:00:22;5.22;;;0.90;;
41201;SDS011;26936;50.524;8.684;2023-03-31T17:02:48;2.85;;;0.80;;
41201;SDS011;26936;50.524;8.684;2023-03-31T17:05:13;3.37;;;0.60;;
41201;SDS011;26936;50.524;8.684;2023-03-31T17:07:39;4.18;;;1.05;;
41201;SDS011;26936;50.524;8.684;2023-03-31T17:10:05;5.67;;;0.90;;
41201;SDS011;26936;50.524;8.684;2023-03-31T17:12:31;4.55;;;0.85;;
41201;SDS011;26936;50.524;8.684;2023-03-31T17:14:56;4.03;;;1.00;;
41201;SDS011;26936;50.524;8.684;2023-03-31T17:17:21;5.53;;;1.00;;
41201;SDS011;26936;50.524;8.684;2023-03-31T17:19:46;3.83;;;0.60;;
41201;SDS011;26936;50.524;8.684;2023-03-31T17:22:11;2.60;;;0.97;;
41201;SDS011;26936;50.524;8.684;2023-03-31T17:24:37;5.60;;;1.30;;
41201;SDS011;26936;50.524;8.684;2023-03-31T17:27:02;5.37;;;0.93;;
41201;SDS011;26936;50.524;8.684;2023-03-31T17:29:27;4.18;;;0.80;;
41201;SDS011;26936;50.524;8.684;2023-03-31T17:31:52;2.33;;;0.70;;